createdAt,value
2023-04-26T00:01:14.848Z,0.90
2023-04-26T00:03:42.326Z,1.13
2023-04-26T00:06:14.897Z,1.00
2023-04-26T00:08:44.905Z,0.97
2023-04-26T00:11:12.262Z,0.80
2023-04-26T00:13:39.779Z,0.90
2023-04-26T00:16:07.234Z,0.90
2023-04-26T00:18:34.738Z,0.77
2023-04-26T00:21:02.078Z,0.90
2023-04-26T00:23:29.339Z,1.00
2023-04-26T00:25:57.941Z,1.00
2023-04-26T00:28:25.546Z,1.00
2023-04-26T00:30:52.957Z,1.30
2023-04-26T00:33:20.826Z,1.10
2023-04-26T00:35:48.223Z,1.27
2023-04-26T00:38:15.765Z,1.20
2023-04-26T00:40:43.125Z,1.00
2023-04-26T00:43:10.677Z,1.10
2023-04-26T00:45:38.139Z,1.23
2023-04-26T00:48:05.671Z,1.00
2023-04-26T00:50:33.569Z,1.37
2023-04-26T00:53:01.611Z,1.00
2023-04-26T00:55:29.107Z,1.07
2023-04-26T00:57:56.571Z,1.10
2023-04-26T01:00:24.024Z,1.07
2023-04-26T01:02:51.880Z,0.80
2023-04-26T01:05:19.369Z,1.00
2023-04-26T01:07:47.133Z,0.83
2023-04-26T01:10:14.485Z,1.00
2023-04-26T01:12:41.864Z,1.20
2023-04-26T01:15:09.723Z,1.10
2023-04-26T01:17:37.948Z,1.10
2023-04-26T01:20:06.096Z,1.07
2023-04-26T01:22:33.921Z,1.33
2023-04-26T01:25:02.640Z,1.20
2023-04-26T01:27:30.031Z,1.70
2023-04-26T01:29:57.446Z,1.13
2023-04-26T01:32:25.121Z,1.30
2023-04-26T01:34:52.604Z,0.90
2023-04-26T01:37:20.046Z,0.90
2023-04-26T01:39:47.428Z,1.13
2023-04-26T01:42:14.788Z,1.10
2023-04-26T01:44:42.236Z,1.10
2023-04-26T01:47:09.724Z,0.90
2023-04-26T01:49:37.325Z,0.80
2023-04-26T01:52:04.765Z,1.17
2023-04-26T01:54:32.363Z,0.90
2023-04-26T01:56:59.765Z,1.10
2023-04-26T01:59:27.110Z,1.00
2023-04-26T02:01:54.597Z,0.90
2023-04-26T02:04:22.109Z,1.10
2023-04-26T02:06:49.589Z,1.27
2023-04-26T02:09:16.965Z,0.90
2023-04-26T02:11:44.368Z,1.90
2023-04-26T02:14:12.140Z,0.97
2023-04-26T02:16:40.736Z,0.90
2023-04-26T02:19:11.132Z,1.00
2023-04-26T02:21:58.040Z,1.30
2023-04-26T02:24:25.943Z,0.90
2023-04-26T02:26:54.964Z,0.73
2023-04-26T02:29:35.933Z,1.03
2023-04-26T02:32:08.128Z,0.77
2023-04-26T02:34:35.750Z,0.90
2023-04-26T02:37:03.408Z,1.07
2023-04-26T02:39:31.628Z,0.80
2023-04-26T02:41:59.575Z,1.50
2023-04-26T02:44:30.123Z,0.83
2023-04-26T02:46:57.668Z,1.30
2023-04-26T02:49:25.170Z,1.00
2023-04-26T02:51:52.638Z,1.30
2023-04-26T02:54:20.193Z,1.10
2023-04-26T02:56:47.593Z,1.07
2023-04-26T02:59:15.018Z,1.00
2023-04-26T03:01:42.438Z,0.87
2023-04-26T03:04:10.008Z,1.00
2023-04-26T03:06:37.632Z,1.10
2023-04-26T03:09:05.947Z,1.00
2023-04-26T03:11:33.444Z,0.70
2023-04-26T03:14:00.933Z,1.00
2023-04-26T03:16:29.812Z,0.87
2023-04-26T03:18:57.135Z,1.23
2023-04-26T03:21:24.585Z,1.20
2023-04-26T03:23:51.888Z,1.17
2023-04-26T03:26:19.896Z,1.17
2023-04-26T03:28:47.341Z,1.00
2023-04-26T03:31:14.645Z,1.10
2023-04-26T03:33:42.163Z,0.97
2023-04-26T03:36:09.522Z,1.33
2023-04-26T03:38:36.904Z,1.20
2023-04-26T03:41:04.366Z,1.07
2023-04-26T03:43:32.410Z,0.93
2023-04-26T03:46:00.548Z,1.20
2023-04-26T03:48:28.287Z,0.90
2023-04-26T03:50:55.727Z,1.03
2023-04-26T03:53:23.111Z,0.87
2023-04-26T03:55:50.609Z,1.10
2023-04-26T03:58:17.894Z,1.07
2023-04-26T04:00:45.394Z,1.17
2023-04-26T04:03:12.992Z,1.13
2023-04-26T04:05:40.723Z,1.17
2023-04-26T04:08:08.289Z,1.50
2023-04-26T04:10:38.059Z,1.33
2023-04-26T04:13:05.477Z,1.53
2023-04-26T04:15:32.870Z,1.40
2023-04-26T04:18:00.598Z,1.10
2023-04-26T04:20:28.030Z,1.20
2023-04-26T04:22:55.523Z,1.20
2023-04-26T04:25:23.143Z,1.03
2023-04-26T04:27:50.769Z,1.03
2023-04-26T04:30:18.459Z,1.27
2023-04-26T04:32:46.981Z,1.00
2023-04-26T04:35:15.239Z,1.13
2023-04-26T04:37:44.273Z,1.47
2023-04-26T04:40:12.079Z,0.90
2023-04-26T04:42:39.903Z,1.20
2023-04-26T04:45:08.065Z,0.90
2023-04-26T04:47:38.077Z,1.10
2023-04-26T04:50:06.655Z,1.10
2023-04-26T04:52:34.395Z,1.40
2023-04-26T04:55:01.798Z,1.10
2023-04-26T04:57:29.241Z,1.23
2023-04-26T04:59:56.920Z,0.90
2023-04-26T05:02:25.776Z,1.10
2023-04-26T05:04:53.486Z,1.13
2023-04-26T05:07:20.912Z,1.20
2023-04-26T05:09:48.282Z,1.70
2023-04-26T05:12:15.647Z,0.93
2023-04-26T05:14:43.087Z,1.23
2023-04-26T05:17:10.607Z,1.40
2023-04-26T05:19:38.012Z,1.20
2023-04-26T05:22:05.402Z,1.10
2023-04-26T05:24:32.879Z,1.40
2023-04-26T05:27:01.168Z,1.40
2023-04-26T05:29:31.858Z,1.10
2023-04-26T05:31:59.498Z,1.20
2023-04-26T05:34:27.060Z,1.27
2023-04-26T05:36:54.545Z,1.20
2023-04-26T05:39:21.900Z,1.40
2023-04-26T05:41:49.327Z,2.13
2023-04-26T05:44:16.805Z,1.63
2023-04-26T05:46:44.296Z,1.40
2023-04-26T05:49:11.607Z,1.30
2023-04-26T05:51:38.947Z,1.13
2023-04-26T05:54:06.453Z,1.30
2023-04-26T05:56:33.847Z,1.50
2023-04-26T05:59:01.202Z,1.47
2023-04-26T06:01:28.613Z,2.00
2023-04-26T06:03:58.940Z,2.40
2023-04-26T06:06:28.402Z,2.50
2023-04-26T06:08:55.960Z,2.13
2023-04-26T06:11:23.401Z,2.10
2023-04-26T06:13:51.108Z,1.70
2023-04-26T06:16:19.172Z,2.50
2023-04-26T06:18:46.810Z,1.90
2023-04-26T06:21:14.284Z,2.17
2023-04-26T06:23:41.681Z,1.70
2023-04-26T06:26:09.003Z,1.07
2023-04-26T06:28:36.575Z,1.30
2023-04-26T06:31:03.969Z,1.20
2023-04-26T06:33:31.489Z,1.40
2023-04-26T06:35:58.883Z,1.50
2023-04-26T06:38:26.502Z,1.90
2023-04-26T06:40:54.165Z,2.40
2023-04-26T06:43:21.647Z,2.60
2023-04-26T06:45:51.788Z,2.30
2023-04-26T06:48:19.206Z,2.00
2023-04-26T06:50:46.608Z,1.60
2023-04-26T06:53:14.365Z,1.73
2023-04-26T06:55:41.713Z,1.80
2023-04-26T06:58:09.269Z,1.70
2023-04-26T07:00:36.786Z,1.60
2023-04-26T07:03:04.424Z,2.00
2023-04-26T07:05:31.902Z,1.20
2023-04-26T07:07:59.429Z,1.40
2023-04-26T07:10:27.647Z,1.77
2023-04-26T07:12:55.923Z,1.47
2023-04-26T07:15:23.408Z,1.40
2023-04-26T07:17:50.840Z,1.33
2023-04-26T07:20:21.210Z,1.07
2023-04-26T07:22:48.726Z,1.30
2023-04-26T07:25:16.244Z,1.30
2023-04-26T07:27:43.727Z,1.03
2023-04-26T07:30:11.500Z,1.27
2023-04-26T07:32:39.088Z,1.10
2023-04-26T07:35:08.033Z,1.00
2023-04-26T07:37:35.449Z,0.90
2023-04-26T07:40:02.909Z,1.10
2023-04-26T07:42:30.295Z,0.80
2023-04-26T07:44:57.652Z,1.00
2023-04-26T07:47:25.189Z,1.30
2023-04-26T07:49:55.686Z,1.00
2023-04-26T07:52:22.969Z,1.43
2023-04-26T07:54:50.447Z,1.60
2023-04-26T07:57:17.763Z,1.07
2023-04-26T07:59:45.166Z,0.97
2023-04-26T08:02:12.674Z,1.30
2023-04-26T08:04:40.428Z,1.20
2023-04-26T08:07:07.934Z,1.23
2023-04-26T08:09:35.568Z,1.43
2023-04-26T08:12:05.121Z,1.07
2023-04-26T08:14:34.446Z,0.90
2023-04-26T08:17:02.165Z,0.87
2023-04-26T08:19:32.017Z,1.20
2023-04-26T08:22:01.814Z,1.10
2023-04-26T08:24:29.361Z,1.23
2023-04-26T08:26:58.681Z,1.00
2023-04-26T08:29:27.601Z,0.97
2023-04-26T08:31:55.163Z,0.97
2023-04-26T08:34:22.602Z,1.00
2023-04-26T08:36:50.093Z,0.80
2023-04-26T08:39:17.989Z,1.07
2023-04-26T08:41:47.163Z,1.53
2023-04-26T08:44:14.816Z,0.90
2023-04-26T08:46:48.178Z,1.20
2023-04-26T08:49:15.648Z,1.07
2023-04-26T08:51:43.961Z,1.00
2023-04-26T08:54:12.229Z,1.13
2023-04-26T08:56:40.315Z,0.90
2023-04-26T08:59:07.704Z,1.20
2023-04-26T09:01:35.386Z,1.00
2023-04-26T09:04:03.447Z,0.70
2023-04-26T09:06:31.407Z,1.17
2023-04-26T09:08:59.167Z,1.03
2023-04-26T09:11:26.486Z,0.80
2023-04-26T09:13:54.019Z,1.10
2023-04-26T09:16:21.501Z,0.70
2023-04-26T09:18:57.448Z,0.80
2023-04-26T09:21:25.017Z,1.00
2023-04-26T09:24:04.753Z,0.83
2023-04-26T09:26:32.218Z,1.03
2023-04-26T09:29:16.311Z,1.00
2023-04-26T09:31:47.031Z,1.17
2023-04-26T09:34:16.406Z,1.43
2023-04-26T09:36:49.951Z,0.70
2023-04-26T09:39:32.723Z,1.00
2023-04-26T09:42:00.602Z,0.90
2023-04-26T09:44:30.206Z,0.90
2023-04-26T09:47:03.789Z,1.00
2023-04-26T09:49:45.007Z,0.90
2023-04-26T09:52:12.518Z,1.00
2023-04-26T09:54:41.606Z,0.93
2023-04-26T09:57:08.948Z,1.03
2023-04-26T09:59:55.061Z,0.93
2023-04-26T10:02:26.907Z,0.90
2023-04-26T10:04:56.973Z,0.80
2023-04-26T10:07:26.026Z,0.90
2023-04-26T10:09:55.823Z,0.80
2023-04-26T10:12:23.577Z,0.80
2023-04-26T10:14:51.059Z,0.80
2023-04-26T10:17:20.987Z,1.10
2023-04-26T10:19:49.640Z,1.10
2023-04-26T10:22:25.449Z,1.37
2023-04-26T10:24:54.801Z,1.40
2023-04-26T10:27:42.120Z,1.10
2023-04-26T10:30:10.613Z,0.80
2023-04-26T10:32:58.422Z,1.30
2023-04-26T10:35:26.804Z,0.90
2023-04-26T10:38:05.790Z,0.70
2023-04-26T10:40:36.483Z,0.80
2023-04-26T10:43:13.898Z,0.80
2023-04-26T10:45:42.170Z,0.83
2023-04-26T10:48:19.761Z,1.07
2023-04-26T10:51:02.883Z,0.90
2023-04-26T10:53:30.981Z,0.80
2023-04-26T10:55:58.291Z,0.80
2023-04-26T10:58:32.936Z,0.90
2023-04-26T11:01:19.228Z,1.10
2023-04-26T11:03:59.309Z,0.63
2023-04-26T11:06:27.128Z,1.00
2023-04-26T11:08:55.258Z,0.90
2023-04-26T11:11:27.259Z,1.10
2023-04-26T11:13:54.851Z,0.80
2023-04-26T11:16:22.803Z,0.80
2023-04-26T11:18:50.592Z,1.10
2023-04-26T11:21:19.731Z,0.87
2023-04-26T11:23:56.507Z,0.90
2023-04-26T11:26:25.003Z,0.73
2023-04-26T11:28:52.642Z,0.90
2023-04-26T11:31:20.404Z,1.47
2023-04-26T11:33:50.476Z,1.10
2023-04-26T11:36:19.887Z,0.90
2023-04-26T11:38:47.388Z,0.90
2023-04-26T11:41:15.048Z,0.97
2023-04-26T11:43:42.783Z,1.10
2023-04-26T11:46:10.782Z,1.00
2023-04-26T11:48:39.330Z,0.80
2023-04-26T11:51:07.630Z,0.80
2023-04-26T11:53:39.100Z,1.00
2023-04-26T11:56:26.134Z,1.00
2023-04-26T11:58:54.048Z,1.00
2023-04-26T12:01:23.577Z,1.00
2023-04-26T12:03:55.405Z,1.20
2023-04-26T12:06:33.926Z,0.90
2023-04-26T12:09:06.074Z,0.80
2023-04-26T12:11:33.492Z,0.87
2023-04-26T12:14:01.586Z,0.80
2023-04-26T12:16:29.083Z,0.97
2023-04-26T12:18:59.490Z,0.90
2023-04-26T12:21:30.325Z,1.03
2023-04-26T12:23:58.500Z,1.13
2023-04-26T12:26:41.129Z,1.20
2023-04-26T12:29:08.921Z,1.33
2023-04-26T12:31:36.326Z,1.30
2023-04-26T12:34:03.778Z,1.40
2023-04-26T12:36:31.779Z,1.13
2023-04-26T12:39:00.967Z,1.07
2023-04-26T12:41:28.388Z,0.90
2023-04-26T12:43:55.969Z,1.10
2023-04-26T12:46:23.373Z,0.97
2023-04-26T12:48:51.299Z,1.13
2023-04-26T12:51:18.912Z,1.00
2023-04-26T12:53:46.323Z,1.67
2023-04-26T12:56:15.133Z,0.90
2023-04-26T12:58:42.484Z,1.20
2023-04-26T13:01:11.099Z,1.20
2023-04-26T13:03:38.775Z,1.23
2023-04-26T13:06:06.622Z,1.13
2023-04-26T13:08:34.044Z,0.87
2023-04-26T13:11:01.644Z,1.00
2023-04-26T13:13:39.866Z,1.10
2023-04-26T13:16:10.304Z,1.23
2023-04-26T13:18:37.849Z,1.20
2023-04-26T13:21:06.163Z,0.97
2023-04-26T13:23:33.690Z,1.07
2023-04-26T13:26:01.051Z,1.10
2023-04-26T13:28:28.471Z,1.07
2023-04-26T13:30:56.267Z,1.00
2023-04-26T13:33:23.766Z,1.20
2023-04-26T13:35:51.380Z,1.00
2023-04-26T13:38:18.849Z,1.10
2023-04-26T13:40:46.683Z,1.10
2023-04-26T13:43:14.084Z,0.80
2023-04-26T13:45:41.566Z,1.33
2023-04-26T13:48:08.938Z,1.10
2023-04-26T13:50:37.211Z,1.27
2023-04-26T13:53:04.697Z,1.20
2023-04-26T13:55:32.052Z,1.10
2023-04-26T13:57:59.527Z,1.00
2023-04-26T14:00:27.402Z,0.77
2023-04-26T14:02:55.179Z,1.00
2023-04-26T14:05:23.742Z,1.13
2023-04-26T14:07:53.571Z,1.07
2023-04-26T14:10:22.330Z,1.10
2023-04-26T14:12:49.996Z,0.93
2023-04-26T14:15:17.488Z,1.17
2023-04-26T14:17:47.132Z,1.03
2023-04-26T14:20:14.677Z,1.00
2023-04-26T14:22:42.048Z,1.10
2023-04-26T14:25:09.808Z,1.37
2023-04-26T14:27:39.633Z,1.20
2023-04-26T14:30:07.733Z,1.30
2023-04-26T14:32:35.256Z,0.83
2023-04-26T14:35:02.759Z,1.07
2023-04-26T14:37:30.285Z,1.00
2023-04-26T14:39:57.657Z,1.23
2023-04-26T14:42:25.009Z,1.23
2023-04-26T14:44:52.338Z,0.90
2023-04-26T14:47:19.809Z,1.00
2023-04-26T14:49:47.162Z,1.07
2023-04-26T14:52:14.452Z,0.90
2023-04-26T14:54:42.647Z,0.87
2023-04-26T14:57:10.573Z,1.07
2023-04-26T14:59:38.206Z,1.20
2023-04-26T15:02:05.890Z,1.20
2023-04-26T15:04:33.520Z,1.27
2023-04-26T15:07:01.248Z,2.47
2023-04-26T15:09:30.570Z,1.03
2023-04-26T15:11:58.325Z,1.10
2023-04-26T15:14:28.842Z,1.00
2023-04-26T15:16:56.380Z,1.23
2023-04-26T15:19:24.041Z,0.90
2023-04-26T15:21:51.363Z,1.10
2023-04-26T15:24:18.810Z,1.20
2023-04-26T15:26:46.486Z,1.00
2023-04-26T15:29:14.082Z,0.93
2023-04-26T15:31:41.498Z,1.00
2023-04-26T15:34:08.961Z,1.17
2023-04-26T15:36:36.479Z,0.87
2023-04-26T15:39:04.208Z,0.97
2023-04-26T15:41:31.599Z,0.90
2023-04-26T15:43:59.916Z,1.13
2023-04-26T15:46:27.362Z,1.07
2023-04-26T15:48:54.799Z,1.00
2023-04-26T15:51:22.279Z,1.30
2023-04-26T15:53:51.605Z,1.10
2023-04-26T15:56:19.130Z,0.90
2023-04-26T15:58:46.959Z,0.90
2023-04-26T16:01:14.985Z,0.70
2023-04-26T16:03:46.409Z,1.00
2023-04-26T16:06:16.218Z,0.80
2023-04-26T16:08:43.680Z,1.10
2023-04-26T16:11:11.290Z,1.00
2023-04-26T16:13:38.729Z,1.10
2023-04-26T16:16:10.832Z,1.10
2023-04-26T16:18:43.772Z,0.87
2023-04-26T16:21:12.533Z,1.10
2023-04-26T16:23:41.709Z,1.20
2023-04-26T16:26:09.727Z,0.87
2023-04-26T16:28:37.411Z,1.10
2023-04-26T16:31:05.519Z,1.30
2023-04-26T16:33:32.967Z,1.10
2023-04-26T16:36:00.649Z,1.20
2023-04-26T16:38:27.977Z,1.50
2023-04-26T16:40:59.204Z,1.23
2023-04-26T16:43:30.286Z,1.20
2023-04-26T16:46:04.920Z,1.53
2023-04-26T16:48:33.008Z,0.90
2023-04-26T16:51:07.184Z,1.00
2023-04-26T16:53:35.270Z,1.10
2023-04-26T16:56:02.813Z,1.10
2023-04-26T16:58:30.487Z,1.30
2023-04-26T17:00:58.687Z,1.30
2023-04-26T17:03:26.818Z,1.03
2023-04-26T17:05:54.563Z,0.73
2023-04-26T17:08:22.100Z,1.27
2023-04-26T17:10:49.539Z,0.97
2023-04-26T17:13:17.023Z,1.10
2023-04-26T17:15:44.626Z,1.07
2023-04-26T17:18:12.416Z,0.87
2023-04-26T17:20:40.045Z,0.93
2023-04-26T17:23:08.721Z,0.90
2023-04-26T17:25:38.923Z,1.10
2023-04-26T17:28:06.321Z,1.20
2023-04-26T17:30:33.850Z,1.00
2023-04-26T17:33:01.357Z,0.90
2023-04-26T17:35:29.128Z,1.10
2023-04-26T17:37:56.605Z,1.00
2023-04-26T17:40:24.011Z,1.10
2023-04-26T17:42:51.441Z,1.20
2023-04-26T17:45:18.802Z,1.20
2023-04-26T17:47:46.397Z,1.00
2023-04-26T17:50:18.531Z,1.33
2023-04-26T17:52:46.004Z,1.30
2023-04-26T17:55:13.412Z,1.47
2023-04-26T17:57:41.243Z,1.00
2023-04-26T18:00:10.409Z,1.20
2023-04-26T18:02:38.542Z,1.10
2023-04-26T18:05:08.707Z,1.10
2023-04-26T18:07:36.531Z,1.20
2023-04-26T18:10:04.489Z,1.27
2023-04-26T18:12:32.163Z,1.13
2023-04-26T18:14:59.682Z,1.20
2023-04-26T18:17:27.237Z,1.10
2023-04-26T18:19:54.760Z,3.83
2023-04-26T18:22:22.206Z,35.37
2023-04-26T18:24:49.824Z,24.23
2023-04-26T18:27:17.402Z,18.27
2023-04-26T18:29:44.849Z,53.87
2023-04-26T18:32:12.641Z,20.37
2023-04-26T18:34:40.340Z,7.47
2023-04-26T18:37:08.123Z,4.73
2023-04-26T18:39:35.526Z,4.00
2023-04-26T18:42:03.080Z,5.13
2023-04-26T18:44:30.602Z,2.70
2023-04-26T18:46:58.059Z,2.53
2023-04-26T18:49:27.385Z,1.90
2023-04-26T18:51:56.159Z,3.00
2023-04-26T18:54:23.516Z,1.90
2023-04-26T18:56:51.007Z,3.63
2023-04-26T18:59:19.180Z,2.70
2023-04-26T19:01:47.008Z,1.20
2023-04-26T19:04:14.753Z,1.33
2023-04-26T19:06:42.241Z,1.20
2023-04-26T19:09:11.892Z,1.20
2023-04-26T19:11:40.326Z,1.10
2023-04-26T19:14:07.727Z,1.20
2023-04-26T19:16:35.524Z,0.80
2023-04-26T19:19:03.407Z,1.30
2023-04-26T19:21:32.090Z,0.90
2023-04-26T19:23:59.498Z,0.90
2023-04-26T19:26:27.027Z,1.67
2023-04-26T19:28:55.981Z,1.47
2023-04-26T19:31:23.639Z,1.33
2023-04-26T19:33:51.280Z,0.93
2023-04-26T19:36:18.705Z,1.30
2023-04-26T19:38:48.504Z,1.50
2023-04-26T19:41:16.139Z,0.90
2023-04-26T19:43:43.674Z,1.00
2023-04-26T19:46:11.918Z,1.10
2023-04-26T19:48:39.644Z,1.47
2023-04-26T19:51:07.313Z,1.50
2023-04-26T19:53:35.490Z,1.30
2023-04-26T19:56:03.368Z,1.13
2023-04-26T19:58:30.886Z,1.07
2023-04-26T20:00:58.250Z,0.97
2023-04-26T20:03:25.849Z,1.00
2023-04-26T20:05:53.846Z,1.20
2023-04-26T20:08:21.403Z,1.17
2023-04-26T20:10:48.778Z,1.00
2023-04-26T20:13:16.123Z,1.20
2023-04-26T20:15:43.567Z,1.53
2023-04-26T20:18:10.963Z,1.20
2023-04-26T20:20:38.402Z,1.70
2023-04-26T20:23:08.286Z,1.27
2023-04-26T20:25:35.883Z,1.30
2023-04-26T20:28:04.368Z,1.17
2023-04-26T20:30:33.867Z,1.10
2023-04-26T20:33:01.508Z,1.20
2023-04-26T20:35:29.080Z,1.10
2023-04-26T20:37:56.631Z,1.10
2023-04-26T20:40:24.000Z,1.20
2023-04-26T20:42:51.681Z,1.27
2023-04-26T20:45:19.363Z,1.30
2023-04-26T20:47:47.310Z,1.10
2023-04-26T20:50:14.906Z,1.60
2023-04-26T20:52:42.281Z,1.30
2023-04-26T20:55:09.835Z,1.60
2023-04-26T20:57:38.450Z,1.33
2023-04-26T21:00:07.563Z,1.20
2023-04-26T21:02:35.131Z,1.00
2023-04-26T21:05:02.779Z,1.33
2023-04-26T21:07:30.201Z,1.23
2023-04-26T21:09:57.887Z,1.50
2023-04-26T21:12:25.403Z,1.00
2023-04-26T21:14:52.855Z,1.60
2023-04-26T21:17:20.181Z,1.13
2023-04-26T21:19:47.651Z,1.07
2023-04-26T21:22:15.089Z,1.07
2023-04-26T21:24:42.467Z,1.17
2023-04-26T21:27:09.836Z,1.33
2023-04-26T21:29:37.253Z,1.13
2023-04-26T21:32:04.691Z,0.90
2023-04-26T21:34:32.150Z,1.10
2023-04-26T21:36:59.563Z,1.20
2023-04-26T21:39:27.005Z,1.00
2023-04-26T21:41:54.324Z,1.20
2023-04-26T21:44:21.703Z,1.30
2023-04-26T21:46:49.193Z,0.83
2023-04-26T21:49:16.729Z,1.20
2023-04-26T21:51:44.125Z,1.03
2023-04-26T21:54:11.641Z,1.33
2023-04-26T21:56:39.404Z,1.13
2023-04-26T21:59:08.329Z,1.50
2023-04-26T22:01:35.930Z,1.00
2023-04-26T22:04:03.761Z,1.13
2023-04-26T22:06:31.164Z,1.10
2023-04-26T22:08:58.524Z,1.10
2023-04-26T22:11:26.078Z,0.90
2023-04-26T22:13:53.482Z,1.30
2023-04-26T22:16:21.084Z,1.10
2023-04-26T22:18:48.399Z,1.40
2023-04-26T22:21:18.928Z,1.30
2023-04-26T22:23:46.633Z,1.27
2023-04-26T22:26:14.088Z,1.17
2023-04-26T22:28:41.604Z,0.93
2023-04-26T22:31:08.950Z,1.10
2023-04-26T22:33:36.765Z,0.90
2023-04-26T22:36:04.376Z,1.30
2023-04-26T22:38:31.894Z,1.23
2023-04-26T22:40:59.322Z,1.03
2023-04-26T22:43:26.736Z,1.10
2023-04-26T22:45:54.189Z,1.13
2023-04-26T22:48:21.488Z,1.50
2023-04-26T22:50:50.572Z,1.40
2023-04-26T22:53:17.967Z,1.00
2023-04-26T22:55:45.438Z,1.37
2023-04-26T22:58:12.973Z,1.10
2023-04-26T23:00:40.464Z,1.30
2023-04-26T23:03:07.964Z,1.10
2023-04-26T23:05:35.466Z,0.90
2023-04-26T23:08:02.962Z,0.93
2023-04-26T23:10:30.294Z,1.17
2023-04-26T23:12:57.667Z,1.10
2023-04-26T23:15:25.752Z,1.03
2023-04-26T23:17:54.089Z,1.40
2023-04-26T23:20:21.456Z,1.00
2023-04-26T23:22:48.812Z,1.30
2023-04-26T23:25:16.256Z,1.00
2023-04-26T23:27:43.603Z,1.17
2023-04-26T23:30:11.334Z,1.20
2023-04-26T23:32:38.815Z,1.10
2023-04-26T23:35:06.848Z,1.20
2023-04-26T23:37:34.173Z,1.30
2023-04-26T23:40:01.683Z,1.00
2023-04-26T23:42:29.051Z,1.13
2023-04-26T23:44:56.475Z,1.30
2023-04-26T23:47:23.844Z,1.00
2023-04-26T23:49:51.207Z,1.10
2023-04-26T23:52:18.608Z,1.27
2023-04-26T23:54:46.046Z,1.10
2023-04-26T23:57:13.362Z,1.00
2023-04-26T23:59:40.768Z,1.73
